createdAt,value
2023-03-31T00:02:13.802Z,100257.63
2023-03-31T00:04:46.506Z,100251.03
2023-03-31T00:07:14.990Z,100243.75
2023-03-31T00:09:46.275Z,100237.31
2023-03-31T00:12:14.979Z,100241.88
2023-03-31T00:14:42.911Z,100208.22
2023-03-31T00:17:10.693Z,100161.66
2023-03-31T00:19:37.962Z,100229.81
2023-03-31T00:22:05.538Z,100212.00
2023-03-31T00:24:33.215Z,100213.06
2023-03-31T00:27:01.762Z,100156.22
2023-03-31T00:29:29.059Z,100185.50
2023-03-31T00:31:56.100Z,100188.13
2023-03-31T00:34:22.798Z,100183.81
2023-03-31T00:36:49.565Z,100182.97
2023-03-31T00:39:18.760Z,100170.19
2023-03-31T00:41:45.751Z,100184.34
2023-03-31T00:44:27.826Z,100164.59
2023-03-31T00:47:10.436Z,100154.28
2023-03-31T00:49:45.406Z,100164.63
2023-03-31T00:52:48.811Z,100161.97
2023-03-31T00:55:18.898Z,100140.88
2023-03-31T00:57:48.047Z,100136.41
2023-03-31T01:00:16.358Z,100124.06
2023-03-31T01:02:51.572Z,100140.88
2023-03-31T01:05:22.336Z,100143.00
2023-03-31T01:07:51.896Z,100136.19
2023-03-31T01:10:19.220Z,100125.66
2023-03-31T01:12:54.894Z,100096.28
2023-03-31T01:15:22.477Z,100128.75
2023-03-31T01:17:51.125Z,100108.56
2023-03-31T01:20:38.548Z,100106.91
2023-03-31T01:23:17.089Z,100102.13
2023-03-31T01:25:50.443Z,100110.53
2023-03-31T01:28:39.035Z,100109.19
2023-03-31T01:31:15.140Z,100097.66
2023-03-31T01:34:12.624Z,100105.47
2023-03-31T01:36:48.454Z,100098.13
2023-03-31T01:39:42.994Z,100097.44
2023-03-31T01:42:12.596Z,100092.44
2023-03-31T01:45:16.831Z,100084.81
2023-03-31T01:47:52.131Z,100075.13
2023-03-31T01:50:48.531Z,100064.53
2023-03-31T01:53:24.964Z,100070.69
2023-03-31T01:55:57.635Z,100071.78
2023-03-31T01:58:36.254Z,100067.06
2023-03-31T02:01:10.414Z,100058.75
2023-03-31T02:03:53.700Z,100048.16
2023-03-31T02:06:25.416Z,100066.47
2023-03-31T02:08:57.360Z,100058.53
2023-03-31T02:11:25.649Z,100053.94
2023-03-31T02:13:56.367Z,99942.88
2023-03-31T02:16:26.775Z,100002.78
2023-03-31T02:19:02.670Z,100006.06
2023-03-31T02:21:32.983Z,100004.09
2023-03-31T02:24:04.222Z,100027.72
2023-03-31T02:26:36.392Z,100023.50
2023-03-31T02:29:03.469Z,99984.59
2023-03-31T02:32:20.626Z,100012.59
2023-03-31T02:34:47.385Z,99972.34
2023-03-31T02:37:14.906Z,99933.75
2023-03-31T02:39:44.820Z,99983.59
2023-03-31T02:42:11.890Z,100002.13
2023-03-31T02:44:40.143Z,99975.44
2023-03-31T02:47:11.509Z,99975.66
2023-03-31T02:49:46.098Z,99968.00
2023-03-31T02:52:34.747Z,99976.34
2023-03-31T02:55:10.235Z,99973.88
2023-03-31T02:58:01.414Z,99960.78
2023-03-31T03:00:52.921Z,99955.50
2023-03-31T03:03:25.658Z,99955.16
2023-03-31T03:06:13.907Z,99936.56
2023-03-31T03:09:18.583Z,99939.59
2023-03-31T03:11:51.654Z,99927.94
2023-03-31T03:14:36.082Z,99911.31
2023-03-31T03:17:26.000Z,99918.34
2023-03-31T03:20:00.417Z,99903.38
2023-03-31T03:22:27.317Z,99895.97
2023-03-31T03:24:54.282Z,99901.47
2023-03-31T03:27:22.974Z,99868.19
2023-03-31T03:29:49.647Z,99874.22
2023-03-31T03:32:16.383Z,99898.47
2023-03-31T03:34:43.308Z,99881.75
2023-03-31T03:37:09.950Z,99874.97
2023-03-31T03:39:36.577Z,99858.88
2023-03-31T03:42:04.079Z,99871.53
2023-03-31T03:44:31.108Z,99866.03
2023-03-31T03:46:57.802Z,99853.28
2023-03-31T03:49:24.621Z,99850.81
2023-03-31T03:51:51.680Z,99853.31
2023-03-31T03:54:18.525Z,99846.06
2023-03-31T03:56:45.240Z,99827.63
2023-03-31T03:59:12.244Z,99810.53
2023-03-31T04:01:38.826Z,99799.13
2023-03-31T04:04:06.028Z,99820.53
2023-03-31T04:06:32.707Z,99761.28
2023-03-31T04:08:59.319Z,99791.00
2023-03-31T04:11:26.227Z,99794.50
2023-03-31T04:13:52.923Z,99770.97
2023-03-31T04:16:19.821Z,99809.13
2023-03-31T04:18:46.612Z,99782.28
2023-03-31T04:21:15.517Z,99802.53
2023-03-31T04:23:46.885Z,99738.63
2023-03-31T04:26:18.588Z,99733.16
2023-03-31T04:28:50.807Z,99757.06
2023-03-31T04:31:27.025Z,99762.41
2023-03-31T04:33:54.396Z,99763.41
2023-03-31T04:36:21.996Z,99751.47
2023-03-31T04:38:56.386Z,99756.78
2023-03-31T04:41:24.592Z,99754.44
2023-03-31T04:43:51.388Z,99721.59
2023-03-31T04:46:18.273Z,99751.16
2023-03-31T04:48:45.295Z,99714.34
2023-03-31T04:51:15.328Z,99728.44
2023-03-31T04:53:42.008Z,99713.16
2023-03-31T04:56:08.999Z,99723.31
2023-03-31T04:58:35.913Z,99695.28
2023-03-31T05:01:02.577Z,99703.41
2023-03-31T05:03:29.362Z,99709.09
2023-03-31T05:05:56.088Z,99714.03
2023-03-31T05:08:22.849Z,99705.25
2023-03-31T05:10:49.758Z,99680.41
2023-03-31T05:13:16.470Z,99677.91
2023-03-31T05:15:45.227Z,99692.19
2023-03-31T05:18:12.110Z,99690.38
2023-03-31T05:20:39.161Z,99674.66
2023-03-31T05:23:07.000Z,99662.69
2023-03-31T05:25:33.937Z,99677.78
2023-03-31T05:28:00.910Z,99613.63
2023-03-31T05:30:28.899Z,99645.47
2023-03-31T05:32:56.929Z,99670.34
2023-03-31T05:35:23.696Z,99648.78
2023-03-31T05:37:51.133Z,99662.03
2023-03-31T05:40:17.920Z,99652.09
2023-03-31T05:42:44.547Z,99661.41
2023-03-31T05:45:12.549Z,99652.44
2023-03-31T05:47:39.337Z,99652.63
2023-03-31T05:50:09.127Z,99652.28
2023-03-31T05:52:36.629Z,99634.53
2023-03-31T05:55:04.496Z,99644.84
2023-03-31T05:57:31.692Z,99636.88
2023-03-31T05:59:58.621Z,99626.59
2023-03-31T06:02:25.825Z,99554.03
2023-03-31T06:04:52.594Z,99571.59
2023-03-31T06:07:19.309Z,99619.47
2023-03-31T06:09:46.694Z,99543.09
2023-03-31T06:12:13.485Z,99586.50
2023-03-31T06:14:40.283Z,99598.94
2023-03-31T06:17:07.383Z,99608.56
2023-03-31T06:19:34.414Z,99588.50
2023-03-31T06:22:01.711Z,99591.81
2023-03-31T06:24:28.539Z,99571.44
2023-03-31T06:26:55.244Z,99575.91
2023-03-31T06:29:22.090Z,99544.44
2023-03-31T06:31:48.903Z,99549.94
2023-03-31T06:34:15.633Z,99571.94
2023-03-31T06:36:42.351Z,99549.09
2023-03-31T06:39:09.100Z,99556.38
2023-03-31T06:41:35.917Z,99526.56
2023-03-31T06:44:02.530Z,99527.22
2023-03-31T06:46:29.181Z,99552.06
2023-03-31T06:48:56.289Z,99518.59
2023-03-31T06:51:23.121Z,99506.03
2023-03-31T06:53:49.812Z,99533.84
2023-03-31T06:56:16.574Z,99513.81
2023-03-31T06:58:43.358Z,99541.09
2023-03-31T07:01:11.840Z,99514.97
2023-03-31T07:03:38.761Z,99515.78
2023-03-31T07:06:05.808Z,99522.22
2023-03-31T07:08:32.727Z,99487.31
2023-03-31T07:11:00.897Z,99527.53
2023-03-31T07:13:28.998Z,99525.53
2023-03-31T07:15:56.256Z,99490.94
2023-03-31T07:18:26.212Z,99517.59
2023-03-31T07:20:53.430Z,99495.72
2023-03-31T07:23:20.842Z,99496.22
2023-03-31T07:25:48.465Z,99503.00
2023-03-31T07:28:16.245Z,99499.03
2023-03-31T07:30:43.077Z,99489.06
2023-03-31T07:33:09.891Z,99484.13
2023-03-31T07:35:41.585Z,99495.34
2023-03-31T07:38:12.697Z,99485.94
2023-03-31T07:40:40.819Z,99490.41
2023-03-31T07:43:07.914Z,99440.44
2023-03-31T07:45:35.703Z,99480.50
2023-03-31T07:48:02.519Z,99468.91
2023-03-31T07:50:29.755Z,99439.63
2023-03-31T07:52:56.477Z,99437.97
2023-03-31T07:55:23.984Z,99467.25
2023-03-31T07:57:51.461Z,99455.97
2023-03-31T08:00:19.185Z,99454.63
2023-03-31T08:02:45.907Z,99443.38
2023-03-31T08:05:15.733Z,99456.63
2023-03-31T08:07:45.335Z,99450.97
2023-03-31T08:10:17.591Z,99420.69
2023-03-31T08:12:44.571Z,99433.09
2023-03-31T08:15:11.668Z,99394.38
2023-03-31T08:17:38.671Z,99438.03
2023-03-31T08:20:10.157Z,99400.63
2023-03-31T08:22:37.954Z,99410.88
2023-03-31T08:25:06.437Z,99419.09
2023-03-31T08:27:37.411Z,99424.22
2023-03-31T08:30:04.871Z,99404.69
2023-03-31T08:32:33.023Z,99424.34
2023-03-31T08:35:00.368Z,99399.84
2023-03-31T08:37:28.446Z,99417.06
2023-03-31T08:39:56.094Z,99399.03
2023-03-31T08:42:43.698Z,99394.22
2023-03-31T08:45:21.284Z,99417.69
2023-03-31T08:47:53.601Z,99384.06
2023-03-31T08:50:26.114Z,99399.78
2023-03-31T08:53:16.721Z,99393.19
2023-03-31T08:55:50.928Z,99403.44
2023-03-31T08:58:37.139Z,99412.38
2023-03-31T09:01:19.914Z,99405.25
2023-03-31T09:04:14.103Z,99403.09
2023-03-31T09:07:03.712Z,99395.47
2023-03-31T09:09:33.568Z,99404.38
2023-03-31T09:12:08.106Z,99369.31
2023-03-31T09:15:01.741Z,99398.41
2023-03-31T09:17:37.547Z,99387.59
2023-03-31T09:20:16.285Z,99386.97
2023-03-31T09:22:51.012Z,99369.59
2023-03-31T09:25:28.644Z,99372.66
2023-03-31T09:27:58.422Z,99345.06
2023-03-31T09:30:28.656Z,99371.78
2023-03-31T09:33:02.924Z,99345.97
2023-03-31T09:35:33.694Z,99311.59
2023-03-31T09:38:00.652Z,99352.88
2023-03-31T09:40:28.809Z,99372.34
2023-03-31T09:43:01.884Z,99378.59
2023-03-31T09:45:30.971Z,99374.59
2023-03-31T09:48:01.248Z,99360.00
2023-03-31T09:50:30.944Z,99359.28
2023-03-31T09:53:00.881Z,99373.06
2023-03-31T09:55:44.568Z,99380.31
2023-03-31T09:58:16.778Z,99371.63
2023-03-31T10:00:58.238Z,99363.31
2023-03-31T10:03:25.541Z,99359.00
2023-03-31T10:05:55.253Z,99292.09
2023-03-31T10:08:28.040Z,99367.97
2023-03-31T10:11:13.705Z,99331.16
2023-03-31T10:13:48.640Z,99354.41
2023-03-31T10:16:30.921Z,99283.69
2023-03-31T10:19:35.074Z,99352.84
2023-03-31T10:22:16.709Z,99360.94
2023-03-31T10:24:45.765Z,99354.25
2023-03-31T10:27:28.893Z,99357.19
2023-03-31T10:30:01.659Z,99344.34
2023-03-31T10:32:31.916Z,99356.25
2023-03-31T10:35:08.161Z,99330.84
2023-03-31T10:37:36.731Z,99344.88
2023-03-31T10:40:14.689Z,99322.72
2023-03-31T10:42:46.401Z,99328.78
2023-03-31T10:45:56.629Z,99346.19
2023-03-31T10:48:34.718Z,99332.81
2023-03-31T10:51:12.808Z,99332.63
2023-03-31T10:53:51.858Z,99336.00
2023-03-31T10:56:24.600Z,99341.75
2023-03-31T10:59:06.034Z,99337.53
2023-03-31T11:01:52.089Z,99330.38
2023-03-31T11:04:58.175Z,99347.56
2023-03-31T11:07:52.822Z,99342.38
2023-03-31T11:10:25.398Z,99336.91
2023-03-31T11:13:04.735Z,99261.63
2023-03-31T11:16:08.023Z,99313.59
2023-03-31T11:18:46.988Z,99298.97
2023-03-31T11:21:40.605Z,99339.16
2023-03-31T11:24:16.374Z,99334.72
2023-03-31T11:27:09.727Z,99315.91
2023-03-31T11:29:42.205Z,99323.44
2023-03-31T11:32:37.287Z,99323.13
2023-03-31T11:35:19.218Z,99314.34
2023-03-31T11:37:56.164Z,99314.59
2023-03-31T11:40:35.129Z,99319.91
2023-03-31T11:43:04.476Z,99314.63
2023-03-31T11:45:39.926Z,99286.88
2023-03-31T11:48:17.130Z,99320.97
2023-03-31T11:50:47.327Z,99298.59
2023-03-31T11:53:27.004Z,99293.31
2023-03-31T11:55:55.929Z,99299.75
2023-03-31T11:58:59.228Z,99303.28
2023-03-31T12:01:44.092Z,99296.31
2023-03-31T12:04:33.602Z,99307.81
2023-03-31T12:07:16.290Z,99260.25
2023-03-31T12:10:11.383Z,99294.13
2023-03-31T12:13:02.564Z,99297.25
2023-03-31T12:15:39.424Z,99294.81
2023-03-31T12:18:25.751Z,99302.03
2023-03-31T12:21:00.110Z,99215.19
2023-03-31T12:23:31.060Z,99288.50
2023-03-31T12:26:16.374Z,99286.03
2023-03-31T12:28:46.090Z,99292.38
2023-03-31T12:31:20.568Z,99268.16
2023-03-31T12:33:58.799Z,99270.03
2023-03-31T12:36:37.312Z,99283.25
2023-03-31T12:39:22.336Z,99280.78
2023-03-31T12:42:20.522Z,99270.59
2023-03-31T12:45:00.136Z,99270.81
2023-03-31T12:48:03.030Z,99257.09
2023-03-31T12:51:02.741Z,99263.50
2023-03-31T12:53:50.488Z,99250.56
2023-03-31T12:56:17.304Z,99247.72
2023-03-31T12:58:45.964Z,99254.50
2023-03-31T13:01:14.785Z,99254.28
2023-03-31T13:04:26.902Z,99250.78
2023-03-31T13:06:56.213Z,99212.31
2023-03-31T13:09:43.294Z,99239.50
2023-03-31T13:12:16.234Z,99235.41
2023-03-31T13:14:47.541Z,99214.81
2023-03-31T13:17:27.790Z,99229.63
2023-03-31T13:19:56.340Z,99216.03
2023-03-31T13:22:35.552Z,99235.75
2023-03-31T13:25:30.145Z,99224.06
2023-03-31T13:27:58.970Z,99219.31
2023-03-31T13:30:41.455Z,99229.75
2023-03-31T13:33:12.042Z,99189.59
2023-03-31T13:35:40.051Z,99214.69
2023-03-31T13:38:25.693Z,99226.00
2023-03-31T13:41:03.425Z,99205.69
2023-03-31T13:44:00.536Z,99219.72
2023-03-31T13:46:48.548Z,99226.44
2023-03-31T13:49:54.453Z,99222.84
2023-03-31T13:53:02.543Z,99234.63
2023-03-31T13:56:11.397Z,99230.19
2023-03-31T13:58:59.710Z,99243.84
2023-03-31T14:02:01.066Z,99250.31
2023-03-31T14:04:57.088Z,99238.28
2023-03-31T14:07:37.604Z,99251.34
2023-03-31T14:10:04.666Z,99239.94
2023-03-31T14:12:38.514Z,99238.94
2023-03-31T14:15:07.075Z,99228.63
2023-03-31T14:17:35.921Z,99233.56
2023-03-31T14:20:08.473Z,99231.91
2023-03-31T14:22:51.858Z,99231.97
2023-03-31T14:25:46.388Z,99223.22
2023-03-31T14:28:31.980Z,99226.75
2023-03-31T14:31:13.620Z,99216.63
2023-03-31T14:33:40.719Z,99218.13
2023-03-31T14:36:26.231Z,99206.56
2023-03-31T14:38:53.053Z,99184.03
2023-03-31T14:41:29.872Z,99209.19
2023-03-31T14:44:00.748Z,99206.81
2023-03-31T14:46:32.031Z,99196.59
2023-03-31T14:48:59.083Z,99193.91
2023-03-31T14:51:29.758Z,99192.06
2023-03-31T14:54:00.244Z,99193.47
2023-03-31T14:56:36.292Z,99190.38
2023-03-31T14:59:04.765Z,99189.31
2023-03-31T15:01:35.823Z,99176.34
2023-03-31T15:04:12.749Z,99192.38
2023-03-31T15:06:42.343Z,99186.78
2023-03-31T15:09:19.429Z,99193.31
2023-03-31T15:11:48.058Z,99164.31
2023-03-31T15:14:14.890Z,99189.00
2023-03-31T15:16:45.389Z,99169.75
2023-03-31T15:19:17.713Z,99179.63
2023-03-31T15:21:45.500Z,99160.72
2023-03-31T15:24:13.933Z,99169.78
2023-03-31T15:26:48.666Z,99158.69
2023-03-31T15:29:19.401Z,99155.53
2023-03-31T15:31:46.840Z,99168.97
2023-03-31T15:34:29.225Z,99174.31
2023-03-31T15:36:57.356Z,99164.03
2023-03-31T15:39:26.713Z,99159.72
2023-03-31T15:41:54.515Z,99139.19
2023-03-31T15:44:36.568Z,99160.97
2023-03-31T15:47:29.362Z,99140.38
2023-03-31T15:50:07.551Z,99161.56
2023-03-31T15:52:39.886Z,99157.91
2023-03-31T15:55:25.860Z,99156.88
2023-03-31T15:57:54.408Z,99156.25
2023-03-31T16:00:46.661Z,99149.88
2023-03-31T16:03:17.649Z,99117.00
2023-03-31T16:08:47.545Z,99138.09
2023-03-31T16:11:22.574Z,99127.84
2023-03-31T16:13:54.424Z,99144.66
2023-03-31T16:16:23.932Z,99141.78
2023-03-31T16:18:54.103Z,99149.56
2023-03-31T16:21:28.224Z,99133.50
2023-03-31T16:23:58.440Z,99150.75
2023-03-31T16:26:27.949Z,99154.88
2023-03-31T16:28:57.644Z,99139.03
2023-03-31T16:31:29.458Z,99152.81
2023-03-31T16:33:57.259Z,99139.28
2023-03-31T16:36:24.036Z,99141.28
2023-03-31T16:38:54.323Z,99123.97
2023-03-31T16:41:23.273Z,99139.56
2023-03-31T16:43:52.562Z,99118.69
2023-03-31T16:46:19.524Z,99126.06
2023-03-31T16:48:46.437Z,99137.72
2023-03-31T16:51:13.659Z,99116.44
2023-03-31T16:53:40.378Z,99154.81
2023-03-31T16:56:08.313Z,99138.69
2023-03-31T16:58:36.641Z,99147.25
2023-03-31T17:01:04.645Z,99147.19
2023-03-31T17:03:31.510Z,99124.91
2023-03-31T17:05:59.425Z,99096.19
2023-03-31T17:08:27.677Z,99140.00
2023-03-31T17:10:59.808Z,99134.44
2023-03-31T17:13:27.205Z,99094.84
2023-03-31T17:16:01.338Z,99149.38
2023-03-31T17:18:36.124Z,99124.88
2023-03-31T17:21:05.639Z,99151.56
2023-03-31T17:23:33.245Z,99135.31
2023-03-31T17:26:00.034Z,99136.69
2023-03-31T17:28:27.243Z,99144.28
2023-03-31T17:30:54.051Z,99133.31
2023-03-31T17:33:22.508Z,99130.41
2023-03-31T17:35:49.445Z,99141.84
2023-03-31T17:38:16.242Z,99128.69
2023-03-31T17:40:43.477Z,99144.94
2023-03-31T17:43:10.170Z,99158.88
2023-03-31T17:45:36.892Z,99147.25
2023-03-31T17:48:06.057Z,99132.72
2023-03-31T17:50:33.086Z,99158.31
2023-03-31T17:52:59.752Z,99138.50
2023-03-31T17:55:27.278Z,99125.78
2023-03-31T17:57:54.039Z,99145.88
2023-03-31T18:00:20.780Z,99157.69
2023-03-31T18:02:47.633Z,99144.50
2023-03-31T18:05:17.011Z,99147.19
2023-03-31T18:07:44.834Z,99163.13
2023-03-31T18:10:12.166Z,99152.22
2023-03-31T18:12:38.813Z,99163.88
2023-03-31T18:15:07.084Z,99156.06
2023-03-31T18:17:34.264Z,99153.59
2023-03-31T18:20:01.074Z,99148.28
2023-03-31T18:22:28.484Z,99148.66
2023-03-31T18:24:55.687Z,99131.19
2023-03-31T18:27:24.605Z,99157.81
2023-03-31T18:29:51.771Z,99158.16
2023-03-31T18:32:18.597Z,99144.16
2023-03-31T18:34:45.369Z,99159.00
2023-03-31T18:37:12.598Z,99156.44
2023-03-31T18:39:39.739Z,99171.84
2023-03-31T18:42:06.601Z,99165.41
2023-03-31T18:44:33.445Z,99166.44
2023-03-31T18:47:00.669Z,99053.69
2023-03-31T18:49:27.800Z,99131.13
2023-03-31T18:51:54.417Z,99152.81
2023-03-31T18:54:22.183Z,99169.47
2023-03-31T18:56:48.962Z,99165.72
2023-03-31T18:59:16.551Z,99138.38
2023-03-31T19:01:43.353Z,99163.06
2023-03-31T19:04:10.610Z,99157.84
2023-03-31T19:06:37.438Z,99161.53
2023-03-31T19:09:04.605Z,99144.38
2023-03-31T19:11:31.183Z,99165.19
2023-03-31T19:13:57.846Z,99156.13
2023-03-31T19:16:26.883Z,99150.72
2023-03-31T19:18:54.353Z,99166.44
2023-03-31T19:21:22.089Z,99106.50
2023-03-31T19:23:49.212Z,99167.47
2023-03-31T19:26:18.235Z,99161.06
2023-03-31T19:28:45.246Z,99155.66
2023-03-31T19:31:12.414Z,99181.94
2023-03-31T19:33:39.175Z,99148.53
2023-03-31T19:36:06.695Z,99166.19
2023-03-31T19:38:36.825Z,99111.59
2023-03-31T19:41:07.431Z,99174.91
2023-03-31T19:43:34.437Z,99179.72
2023-03-31T19:46:01.738Z,99160.44
2023-03-31T19:48:31.373Z,99115.81
2023-03-31T19:50:59.895Z,99179.03
2023-03-31T19:53:27.294Z,99179.22
2023-03-31T19:55:56.264Z,99167.06
2023-03-31T19:58:23.275Z,99162.59
2023-03-31T20:00:54.432Z,99181.47
2023-03-31T20:03:22.464Z,99173.22
2023-03-31T20:05:49.600Z,99157.28
2023-03-31T20:08:16.499Z,99169.56
2023-03-31T20:10:43.502Z,99140.25
2023-03-31T20:13:10.521Z,99163.41
2023-03-31T20:15:38.955Z,99155.97
2023-03-31T20:18:07.219Z,99160.84
2023-03-31T20:20:33.989Z,99162.41
2023-03-31T20:23:01.184Z,99081.19
2023-03-31T20:25:28.024Z,99153.22
2023-03-31T20:27:54.831Z,99150.03
2023-03-31T20:30:21.759Z,99151.03
2023-03-31T20:32:48.506Z,99162.91
2023-03-31T20:35:15.284Z,99137.75
2023-03-31T20:37:42.084Z,99116.50
2023-03-31T20:40:09.453Z,99122.78
2023-03-31T20:42:36.389Z,99141.22
2023-03-31T20:45:03.763Z,99106.69
2023-03-31T20:47:30.498Z,99160.78
2023-03-31T20:49:57.177Z,99166.09
2023-03-31T20:52:24.298Z,99148.13
2023-03-31T20:54:51.224Z,99153.06
2023-03-31T20:57:17.896Z,99140.03
2023-03-31T20:59:45.541Z,99109.41
2023-03-31T21:02:13.114Z,99142.84
2023-03-31T21:04:39.817Z,99126.69
2023-03-31T21:07:06.800Z,99135.47
2023-03-31T21:09:34.162Z,99162.19
2023-03-31T21:12:01.464Z,99161.19
2023-03-31T21:14:29.622Z,99103.50
2023-03-31T21:16:56.498Z,99163.78
2023-03-31T21:19:23.342Z,99164.16
2023-03-31T21:21:50.061Z,99114.75
2023-03-31T21:24:16.914Z,99131.31
2023-03-31T21:26:43.639Z,99130.06
2023-03-31T21:29:10.858Z,99157.00
2023-03-31T21:31:37.729Z,99141.16
2023-03-31T21:34:05.307Z,99176.75
2023-03-31T21:36:32.147Z,99158.59
2023-03-31T21:38:58.886Z,99168.03
2023-03-31T21:41:30.108Z,99168.16
2023-03-31T21:44:00.514Z,99158.81
2023-03-31T21:46:31.209Z,99147.88
2023-03-31T21:48:58.044Z,99154.78
2023-03-31T21:51:25.190Z,99161.91
2023-03-31T21:53:56.076Z,99135.84
2023-03-31T21:56:24.732Z,99171.81
2023-03-31T21:58:51.906Z,99145.78
2023-03-31T22:01:18.987Z,99164.28
2023-03-31T22:03:46.340Z,99171.53
2023-03-31T22:06:13.312Z,99163.91
2023-03-31T22:08:40.755Z,99174.00
2023-03-31T22:11:09.286Z,99176.47
2023-03-31T22:13:36.665Z,99174.81
2023-03-31T22:16:05.020Z,99156.38
2023-03-31T22:18:31.971Z,99165.94
2023-03-31T22:20:58.895Z,99134.59
2023-03-31T22:23:26.089Z,99165.41
2023-03-31T22:25:52.685Z,99155.03
2023-03-31T22:28:19.498Z,99150.38
2023-03-31T22:30:46.377Z,99146.63
2023-03-31T22:33:13.249Z,99157.16
2023-03-31T22:35:40.079Z,99120.41
2023-03-31T22:38:08.523Z,99123.41
2023-03-31T22:40:36.288Z,99178.66
2023-03-31T22:43:03.168Z,99108.56
2023-03-31T22:45:29.946Z,99159.50
2023-03-31T22:47:57.035Z,99175.00
2023-03-31T22:50:24.274Z,99172.53
2023-03-31T22:52:50.948Z,99167.59
2023-03-31T22:55:17.730Z,99166.28
2023-03-31T22:57:44.680Z,99164.16
2023-03-31T23:00:12.760Z,99176.88
2023-03-31T23:02:40.090Z,99176.22
2023-03-31T23:05:07.173Z,99154.78
2023-03-31T23:07:33.909Z,99172.75
2023-03-31T23:10:00.649Z,99165.34
2023-03-31T23:12:28.260Z,99173.13
2023-03-31T23:14:54.855Z,99160.75
2023-03-31T23:17:21.531Z,99176.59
2023-03-31T23:19:48.602Z,99165.22
2023-03-31T23:22:15.348Z,99183.00
2023-03-31T23:24:41.956Z,99170.63
2023-03-31T23:27:08.753Z,99120.00
2023-03-31T23:29:35.689Z,99174.50
2023-03-31T23:32:03.506Z,99169.47
2023-03-31T23:34:30.533Z,99179.81
2023-03-31T23:36:57.282Z,99182.84
2023-03-31T23:39:24.009Z,99177.44
2023-03-31T23:41:51.177Z,99142.25
2023-03-31T23:44:17.992Z,99187.50
2023-03-31T23:46:44.732Z,99079.13
2023-03-31T23:49:11.755Z,99174.78
2023-03-31T23:51:38.363Z,99164.69
2023-03-31T23:54:05.118Z,99150.53
2023-03-31T23:56:31.773Z,99168.88
2023-03-31T23:58:58.595Z,99161.09
